sensor_id;sensor_type;location;lat;lon;timestamp;pressure;altitude;pressure_sealevel;temperature
53412;BMP280;39307;52.870;13.660;2023-06-14T00:02:10;101206.47;;;14.07
53412;BMP280;39307;52.870;13.660;2023-06-14T00:04:36;101213.75;;;14.05
53412;BMP280;39307;52.870;13.660;2023-06-14T00:07:02;101217.41;;;14.04
53412;BMP280;39307;52.870;13.660;2023-06-14T00:09:29;101220.00;;;13.98
53412;BMP280;39307;52.870;13.660;2023-06-14T00:11:55;101227.19;;;13.89
53412;BMP280;39307;52.870;13.660;2023-06-14T00:14:21;101224.69;;;13.82
53412;BMP280;39307;52.870;13.660;2023-06-14T00:16:48;101228.88;;;13.76
53412;BMP280;39307;52.870;13.660;2023-06-14T00:19:14;101224.59;;;13.69
53412;BMP280;39307;52.870;13.660;2023-06-14T00:21:40;101231.41;;;13.63
53412;BMP280;39307;52.870;13.660;2023-06-14T00:24:07;101236.63;;;13.57
53412;BMP280;39307;52.870;13.660;2023-06-14T00:26:33;101234.13;;;13.49
53412;BMP280;39307;52.870;13.660;2023-06-14T00:29:00;101239.78;;;13.46
53412;BMP280;39307;52.870;13.660;2023-06-14T00:31:26;101236.91;;;13.41
53412;BMP280;39307;52.870;13.660;2023-06-14T00:33:52;101242.00;;;13.49
53412;BMP280;39307;52.870;13.660;2023-06-14T00:36:18;101244.91;;;13.54
53412;BMP280;39307;52.870;13.660;2023-06-14T00:38:45;101247.91;;;13.51
53412;BMP280;39307;52.870;13.660;2023-06-14T00:41:11;101252.53;;;13.49
53412;BMP280;39307;52.870;13.660;2023-06-14T00:43:37;101249.03;;;13.42
53412;BMP280;39307;52.870;13.660;2023-06-14T00:46:04;101247.78;;;13.38
53412;BMP280;39307;52.870;13.660;2023-06-14T00:48:30;101245.09;;;13.32
53412;BMP280;39307;52.870;13.660;2023-06-14T00:50:58;101247.66;;;13.26
53412;BMP280;39307;52.870;13.660;2023-06-14T00:53:26;101248.41;;;13.20
53412;BMP280;39307;52.870;13.660;2023-06-14T00:55:52;101242.66;;;13.10
53412;BMP280;39307;52.870;13.660;2023-06-14T00:58:22;101240.41;;;13.07
53412;BMP280;39307;52.870;13.660;2023-06-14T01:00:48;101247.44;;;13.06
53412;BMP280;39307;52.870;13.660;2023-06-14T01:03:15;101237.94;;;13.05
53412;BMP280;39307;52.870;13.660;2023-06-14T01:05:41;101247.38;;;13.00
53412;BMP280;39307;52.870;13.660;2023-06-14T01:08:28;101248.31;;;12.93
53412;BMP280;39307;52.870;13.660;2023-06-14T01:11:16;101246.88;;;12.90
53412;BMP280;39307;52.870;13.660;2023-06-14T01:13:46;101245.25;;;12.89
53412;BMP280;39307;52.870;13.660;2023-06-14T01:16:13;101240.97;;;12.88
53412;BMP280;39307;52.870;13.660;2023-06-14T01:18:40;101242.72;;;12.81
53412;BMP280;39307;52.870;13.660;2023-06-14T01:21:23;101246.34;;;12.80
53412;BMP280;39307;52.870;13.660;2023-06-14T01:23:50;101242.66;;;12.75
53412;BMP280;39307;52.870;13.660;2023-06-14T01:26:16;101245.81;;;12.70
53412;BMP280;39307;52.870;13.660;2023-06-14T01:28:42;101253.84;;;12.69
53412;BMP280;39307;52.870;13.660;2023-06-14T01:31:09;101246.34;;;12.66
53412;BMP280;39307;52.870;13.660;2023-06-14T01:33:35;101248.31;;;12.64
53412;BMP280;39307;52.870;13.660;2023-06-14T01:36:03;101254.94;;;12.60
53412;BMP280;39307;52.870;13.660;2023-06-14T01:38:31;101245.16;;;12.54
53412;BMP280;39307;52.870;13.660;2023-06-14T01:40:58;101248.97;;;12.52
53412;BMP280;39307;52.870;13.660;2023-06-14T01:43:25;101249.16;;;12.50
53412;BMP280;39307;52.870;13.660;2023-06-14T01:45:54;101244.09;;;12.49
53412;BMP280;39307;52.870;13.660;2023-06-14T01:48:21;101238.03;;;12.48
53412;BMP280;39307;52.870;13.660;2023-06-14T01:50:51;101243.28;;;12.48
53412;BMP280;39307;52.870;13.660;2023-06-14T01:53:18;101232.16;;;12.46
53412;BMP280;39307;52.870;13.660;2023-06-14T01:55:44;101236.94;;;12.43
53412;BMP280;39307;52.870;13.660;2023-06-14T01:58:11;101230.44;;;12.39
53412;BMP280;39307;52.870;13.660;2023-06-14T02:00:37;101239.47;;;12.37
53412;BMP280;39307;52.870;13.660;2023-06-14T02:03:03;101246.53;;;12.36
53412;BMP280;39307;52.870;13.660;2023-06-14T02:05:30;101246.09;;;12.33
53412;BMP280;39307;52.870;13.660;2023-06-14T02:07:56;101245.28;;;12.32
53412;BMP280;39307;52.870;13.660;2023-06-14T02:10:22;101246.28;;;12.31
53412;BMP280;39307;52.870;13.660;2023-06-14T02:12:49;101248.06;;;12.31
53412;BMP280;39307;52.870;13.660;2023-06-14T02:15:15;101243.19;;;12.28
53412;BMP280;39307;52.870;13.660;2023-06-14T02:17:41;101243.09;;;12.21
53412;BMP280;39307;52.870;13.660;2023-06-14T02:20:08;101248.25;;;12.15
53412;BMP280;39307;52.870;13.660;2023-06-14T02:22:34;101238.47;;;12.09
53412;BMP280;39307;52.870;13.660;2023-06-14T02:25:01;101244.88;;;12.07
53412;BMP280;39307;52.870;13.660;2023-06-14T02:27:27;101232.63;;;12.07
53412;BMP280;39307;52.870;13.660;2023-06-14T02:29:53;101226.72;;;12.05
53412;BMP280;39307;52.870;13.660;2023-06-14T02:32:19;101237.03;;;12.07
53412;BMP280;39307;52.870;13.660;2023-06-14T02:34:46;101232.63;;;12.07
53412;BMP280;39307;52.870;13.660;2023-06-14T02:37:12;101239.47;;;12.08
53412;BMP280;39307;52.870;13.660;2023-06-14T02:39:38;101240.94;;;12.11
53412;BMP280;39307;52.870;13.660;2023-06-14T02:42:04;101246.19;;;12.11
53412;BMP280;39307;52.870;13.660;2023-06-14T02:44:31;101248.53;;;12.06
53412;BMP280;39307;52.870;13.660;2023-06-14T02:46:57;101250.13;;;12.07
53412;BMP280;39307;52.870;13.660;2023-06-14T02:49:23;101249.34;;;12.06
53412;BMP280;39307;52.870;13.660;2023-06-14T02:51:49;101243.63;;;12.03
53412;BMP280;39307;52.870;13.660;2023-06-14T02:54:16;101244.00;;;12.00
53412;BMP280;39307;52.870;13.660;2023-06-14T02:56:42;101242.88;;;11.94
53412;BMP280;39307;52.870;13.660;2023-06-14T02:59:08;101239.47;;;11.94
53412;BMP280;39307;52.870;13.660;2023-06-14T03:01:34;101247.16;;;11.95
53412;BMP280;39307;52.870;13.660;2023-06-14T03:04:01;101243.09;;;11.93
53412;BMP280;39307;52.870;13.660;2023-06-14T03:06:29;101241.47;;;11.92
53412;BMP280;39307;52.870;13.660;2023-06-14T03:08:58;101239.47;;;11.94
53412;BMP280;39307;52.870;13.660;2023-06-14T03:11:25;101244.09;;;11.92
53412;BMP280;39307;52.870;13.660;2023-06-14T03:13:52;101241.47;;;11.92
53412;BMP280;39307;52.870;13.660;2023-06-14T03:16:19;101237.03;;;11.92
53412;BMP280;39307;52.870;13.660;2023-06-14T03:18:45;101247.69;;;11.91
53412;BMP280;39307;52.870;13.660;2023-06-14T03:21:12;101242.88;;;11.94
53412;BMP280;39307;52.870;13.660;2023-06-14T03:23:38;101240.75;;;11.98
53412;BMP280;39307;52.870;13.660;2023-06-14T03:26:05;101253.22;;;11.96
53412;BMP280;39307;52.870;13.660;2023-06-14T03:28:31;101257.00;;;11.93
53412;BMP280;39307;52.870;13.660;2023-06-14T03:30:57;101254.38;;;11.93
53412;BMP280;39307;52.870;13.660;2023-06-14T03:33:23;101259.28;;;11.96
53412;BMP280;39307;52.870;13.660;2023-06-14T03:35:50;101248.25;;;12.01
53412;BMP280;39307;52.870;13.660;2023-06-14T03:38:16;101241.66;;;12.05
53412;BMP280;39307;52.870;13.660;2023-06-14T03:40:42;101254.22;;;12.09
53412;BMP280;39307;52.870;13.660;2023-06-14T03:43:09;101258.50;;;12.10
53412;BMP280;39307;52.870;13.660;2023-06-14T03:45:35;101263.91;;;12.09
53412;BMP280;39307;52.870;13.660;2023-06-14T03:48:01;101263.91;;;12.09
53412;BMP280;39307;52.870;13.660;2023-06-14T03:50:29;101261.66;;;12.06
53412;BMP280;39307;52.870;13.660;2023-06-14T03:52:55;101257.41;;;12.05
53412;BMP280;39307;52.870;13.660;2023-06-14T03:55:21;101273.16;;;12.05
53412;BMP280;39307;52.870;13.660;2023-06-14T03:57:48;101265.06;;;12.06
53412;BMP280;39307;52.870;13.660;2023-06-14T04:00:14;101270.78;;;12.10
53412;BMP280;39307;52.870;13.660;2023-06-14T04:02:40;101271.44;;;12.11
53412;BMP280;39307;52.870;13.660;2023-06-14T04:05:07;101270.63;;;12.11
53412;BMP280;39307;52.870;13.660;2023-06-14T04:07:33;101280.09;;;12.12
53412;BMP280;39307;52.870;13.660;2023-06-14T04:09:59;101279.13;;;12.13
53412;BMP280;39307;52.870;13.660;2023-06-14T04:12:25;101273.53;;;12.16
53412;BMP280;39307;52.870;13.660;2023-06-14T04:14:52;101274.78;;;12.20
53412;BMP280;39307;52.870;13.660;2023-06-14T04:17:18;101271.00;;;12.22
53412;BMP280;39307;52.870;13.660;2023-06-14T04:19:44;101268.81;;;12.26
53412;BMP280;39307;52.870;13.660;2023-06-14T04:22:10;101261.41;;;12.29
53412;BMP280;39307;52.870;13.660;2023-06-14T04:24:37;101265.13;;;12.35
53412;BMP280;39307;52.870;13.660;2023-06-14T04:27:04;101267.19;;;12.39
53412;BMP280;39307;52.870;13.660;2023-06-14T04:29:30;101272.72;;;12.44
53412;BMP280;39307;52.870;13.660;2023-06-14T04:31:57;101276.59;;;12.48
53412;BMP280;39307;52.870;13.660;2023-06-14T04:34:23;101279.16;;;12.56
53412;BMP280;39307;52.870;13.660;2023-06-14T04:36:49;101275.59;;;12.63
53412;BMP280;39307;52.870;13.660;2023-06-14T04:39:19;101280.56;;;12.72
53412;BMP280;39307;52.870;13.660;2023-06-14T04:41:46;101272.78;;;12.79
53412;BMP280;39307;52.870;13.660;2023-06-14T04:44:12;101285.03;;;12.86
53412;BMP280;39307;52.870;13.660;2023-06-14T04:46:39;101288.63;;;12.99
53412;BMP280;39307;52.870;13.660;2023-06-14T04:49:05;101282.63;;;13.05
53412;BMP280;39307;52.870;13.660;2023-06-14T04:51:31;101286.78;;;13.14
53412;BMP280;39307;52.870;13.660;2023-06-14T04:53:58;101294.72;;;13.21
53412;BMP280;39307;52.870;13.660;2023-06-14T04:56:25;101290.56;;;13.26
53412;BMP280;39307;52.870;13.660;2023-06-14T04:58:51;101281.91;;;13.32
53412;BMP280;39307;52.870;13.660;2023-06-14T05:01:17;101281.34;;;13.36
53412;BMP280;39307;52.870;13.660;2023-06-14T05:03:43;101281.41;;;13.43
53412;BMP280;39307;52.870;13.660;2023-06-14T05:06:09;101279.91;;;13.55
53412;BMP280;39307;52.870;13.660;2023-06-14T05:08:36;101277.16;;;13.62
53412;BMP280;39307;52.870;13.660;2023-06-14T05:11:02;101278.44;;;13.73
53412;BMP280;39307;52.870;13.660;2023-06-14T05:13:28;101273.69;;;13.83
53412;BMP280;39307;52.870;13.660;2023-06-14T05:15:55;101276.59;;;13.94
53412;BMP280;39307;52.870;13.660;2023-06-14T05:18:21;101278.34;;;14.01
53412;BMP280;39307;52.870;13.660;2023-06-14T05:20:47;101274.94;;;14.07
53412;BMP280;39307;52.870;13.660;2023-06-14T05:23:13;101274.78;;;14.15
53412;BMP280;39307;52.870;13.660;2023-06-14T05:25:41;101278.50;;;14.27
53412;BMP280;39307;52.870;13.660;2023-06-14T05:28:07;101283.25;;;14.38
53412;BMP280;39307;52.870;13.660;2023-06-14T05:30:34;101281.31;;;14.52
53412;BMP280;39307;52.870;13.660;2023-06-14T05:33:00;101292.91;;;14.64
53412;BMP280;39307;52.870;13.660;2023-06-14T05:35:26;101287.28;;;14.73
53412;BMP280;39307;52.870;13.660;2023-06-14T05:37:53;101288.72;;;14.82
53412;BMP280;39307;52.870;13.660;2023-06-14T05:40:19;101287.38;;;14.93
53412;BMP280;39307;52.870;13.660;2023-06-14T05:42:46;101290.84;;;15.06
53412;BMP280;39307;52.870;13.660;2023-06-14T05:45:12;101288.09;;;15.14
53412;BMP280;39307;52.870;13.660;2023-06-14T05:47:40;101288.91;;;15.21
53412;BMP280;39307;52.870;13.660;2023-06-14T05:50:06;101287.50;;;15.31
53412;BMP280;39307;52.870;13.660;2023-06-14T05:52:33;101297.31;;;15.43
53412;BMP280;39307;52.870;13.660;2023-06-14T05:54:59;101294.84;;;15.42
53412;BMP280;39307;52.870;13.660;2023-06-14T05:57:26;101297.09;;;15.45
53412;BMP280;39307;52.870;13.660;2023-06-14T05:59:52;101298.09;;;15.44
53412;BMP280;39307;52.870;13.660;2023-06-14T06:02:18;101306.84;;;15.51
53412;BMP280;39307;52.870;13.660;2023-06-14T06:04:44;101299.97;;;15.56
53412;BMP280;39307;52.870;13.660;2023-06-14T06:07:11;101306.28;;;15.61
53412;BMP280;39307;52.870;13.660;2023-06-14T06:09:37;101303.81;;;15.66
53412;BMP280;39307;52.870;13.660;2023-06-14T06:12:06;101302.41;;;15.77
53412;BMP280;39307;52.870;13.660;2023-06-14T06:14:32;101296.13;;;15.84
53412;BMP280;39307;52.870;13.660;2023-06-14T06:16:59;101300.19;;;15.93
53412;BMP280;39307;52.870;13.660;2023-06-14T06:19:25;101299.38;;;15.99
53412;BMP280;39307;52.870;13.660;2023-06-14T06:21:51;101302.81;;;16.06
53412;BMP280;39307;52.870;13.660;2023-06-14T06:24:17;101305.28;;;16.14
53412;BMP280;39307;52.870;13.660;2023-06-14T06:26:44;101297.75;;;16.23
53412;BMP280;39307;52.870;13.660;2023-06-14T06:29:11;101292.28;;;16.31
53412;BMP280;39307;52.870;13.660;2023-06-14T06:31:37;101296.50;;;16.39
53412;BMP280;39307;52.870;13.660;2023-06-14T06:34:05;101297.72;;;16.43
53412;BMP280;39307;52.870;13.660;2023-06-14T06:36:32;101296.69;;;16.50
53412;BMP280;39307;52.870;13.660;2023-06-14T06:38:58;101292.00;;;16.52
53412;BMP280;39307;52.870;13.660;2023-06-14T06:41:24;101305.41;;;16.57
53412;BMP280;39307;52.870;13.660;2023-06-14T06:43:50;101299.31;;;16.63
53412;BMP280;39307;52.870;13.660;2023-06-14T06:46:16;101297.66;;;16.68
53412;BMP280;39307;52.870;13.660;2023-06-14T06:48:43;101302.31;;;16.73
53412;BMP280;39307;52.870;13.660;2023-06-14T06:51:09;101298.88;;;16.72
53412;BMP280;39307;52.870;13.660;2023-06-14T06:53:36;101289.09;;;16.73
53412;BMP280;39307;52.870;13.660;2023-06-14T06:56:02;101295.59;;;16.76
53412;BMP280;39307;52.870;13.660;2023-06-14T06:58:28;101284.59;;;16.79
53412;BMP280;39307;52.870;13.660;2023-06-14T07:00:54;101288.63;;;16.88
53412;BMP280;39307;52.870;13.660;2023-06-14T07:03:21;101289.97;;;17.03
53412;BMP280;39307;52.870;13.660;2023-06-14T07:05:47;101296.88;;;17.17
53412;BMP280;39307;52.870;13.660;2023-06-14T07:08:13;101282.53;;;17.31
53412;BMP280;39307;52.870;13.660;2023-06-14T07:10:39;101289.06;;;17.35
53412;BMP280;39307;52.870;13.660;2023-06-14T07:13:05;101299.78;;;17.40
53412;BMP280;39307;52.870;13.660;2023-06-14T07:15:32;101303.00;;;17.48
53412;BMP280;39307;52.870;13.660;2023-06-14T07:17:58;101302.72;;;17.63
53412;BMP280;39307;52.870;13.660;2023-06-14T07:20:24;101309.75;;;17.75
53412;BMP280;39307;52.870;13.660;2023-06-14T07:22:51;101308.25;;;17.85
53412;BMP280;39307;52.870;13.660;2023-06-14T07:25:17;101314.03;;;18.00
53412;BMP280;39307;52.870;13.660;2023-06-14T07:27:44;101309.03;;;18.16
53412;BMP280;39307;52.870;13.660;2023-06-14T07:30:11;101313.44;;;18.28
53412;BMP280;39307;52.870;13.660;2023-06-14T07:32:37;101309.72;;;18.29
53412;BMP280;39307;52.870;13.660;2023-06-14T07:35:04;101311.16;;;18.32
53412;BMP280;39307;52.870;13.660;2023-06-14T07:37:30;101309.28;;;18.32
53412;BMP280;39307;52.870;13.660;2023-06-14T07:39:57;101315.34;;;18.39
53412;BMP280;39307;52.870;13.660;2023-06-14T07:42:23;101320.50;;;18.52
53412;BMP280;39307;52.870;13.660;2023-06-14T07:44:49;101311.03;;;18.62
53412;BMP280;39307;52.870;13.660;2023-06-14T07:47:15;101310.88;;;18.57
53412;BMP280;39307;52.870;13.660;2023-06-14T07:49:41;101312.03;;;18.61
53412;BMP280;39307;52.870;13.660;2023-06-14T07:52:08;101316.69;;;18.66
53412;BMP280;39307;52.870;13.660;2023-06-14T07:54:34;101319.47;;;18.71
53412;BMP280;39307;52.870;13.660;2023-06-14T07:57:00;101315.94;;;18.77
53412;BMP280;39307;52.870;13.660;2023-06-14T07:59:26;101311.53;;;18.88
53412;BMP280;39307;52.870;13.660;2023-06-14T08:01:53;101317.63;;;18.95
53412;BMP280;39307;52.870;13.660;2023-06-14T08:04:19;101311.78;;;19.05
53412;BMP280;39307;52.870;13.660;2023-06-14T08:06:45;101310.91;;;19.10
53412;BMP280;39307;52.870;13.660;2023-06-14T08:09:13;101307.09;;;19.18
53412;BMP280;39307;52.870;13.660;2023-06-14T08:11:39;101305.25;;;19.18
53412;BMP280;39307;52.870;13.660;2023-06-14T08:14:06;101298.50;;;19.22
53412;BMP280;39307;52.870;13.660;2023-06-14T08:16:32;101298.41;;;19.29
53412;BMP280;39307;52.870;13.660;2023-06-14T08:18:58;101302.50;;;19.25
53412;BMP280;39307;52.870;13.660;2023-06-14T08:21:24;101301.25;;;19.27
53412;BMP280;39307;52.870;13.660;2023-06-14T08:23:51;101298.88;;;19.37
53412;BMP280;39307;52.870;13.660;2023-06-14T08:26:17;101299.47;;;19.39
53412;BMP280;39307;52.870;13.660;2023-06-14T08:28:43;101302.56;;;19.36
53412;BMP280;39307;52.870;13.660;2023-06-14T08:31:09;101306.38;;;19.40
53412;BMP280;39307;52.870;13.660;2023-06-14T08:33:35;101300.16;;;19.46
53412;BMP280;39307;52.870;13.660;2023-06-14T08:36:02;101294.84;;;19.46
53412;BMP280;39307;52.870;13.660;2023-06-14T08:38:28;101297.31;;;19.47
53412;BMP280;39307;52.870;13.660;2023-06-14T08:40:58;101297.31;;;19.47
53412;BMP280;39307;52.870;13.660;2023-06-14T08:43:25;101295.81;;;19.51
53412;BMP280;39307;52.870;13.660;2023-06-14T08:45:58;101297.81;;;19.56
53412;BMP280;39307;52.870;13.660;2023-06-14T08:48:27;101284.88;;;19.59
53412;BMP280;39307;52.870;13.660;2023-06-14T08:50:57;101288.91;;;19.62
53412;BMP280;39307;52.870;13.660;2023-06-14T08:53:26;101292.50;;;19.67
53412;BMP280;39307;52.870;13.660;2023-06-14T08:55:52;101286.97;;;19.68
53412;BMP280;39307;52.870;13.660;2023-06-14T08:58:18;101282.22;;;19.70
53412;BMP280;39307;52.870;13.660;2023-06-14T09:00:45;101283.44;;;19.74
53412;BMP280;39307;52.870;13.660;2023-06-14T09:03:12;101291.97;;;19.76
53412;BMP280;39307;52.870;13.660;2023-06-14T09:05:38;101286.19;;;19.79
53412;BMP280;39307;52.870;13.660;2023-06-14T09:08:04;101282.06;;;19.83
53412;BMP280;39307;52.870;13.660;2023-06-14T09:10:31;101292.25;;;19.86
53412;BMP280;39307;52.870;13.660;2023-06-14T09:12:58;101293.72;;;19.82
53412;BMP280;39307;52.870;13.660;2023-06-14T09:15:24;101285.41;;;19.79
53412;BMP280;39307;52.870;13.660;2023-06-14T09:17:50;101294.75;;;19.81
53412;BMP280;39307;52.870;13.660;2023-06-14T09:20:17;101287.38;;;19.83
53412;BMP280;39307;52.870;13.660;2023-06-14T09:22:43;101298.13;;;19.88
53412;BMP280;39307;52.870;13.660;2023-06-14T09:25:10;101284.50;;;19.96
53412;BMP280;39307;52.870;13.660;2023-06-14T09:27:36;101288.78;;;19.97
53412;BMP280;39307;52.870;13.660;2023-06-14T09:30:03;101291.44;;;20.08
53412;BMP280;39307;52.870;13.660;2023-06-14T09:32:29;101291.69;;;20.18
53412;BMP280;39307;52.870;13.660;2023-06-14T09:34:56;101283.13;;;20.27
53412;BMP280;39307;52.870;13.660;2023-06-14T09:37:29;101291.31;;;20.37
53412;BMP280;39307;52.870;13.660;2023-06-14T09:39:56;101290.38;;;20.43
53412;BMP280;39307;52.870;13.660;2023-06-14T09:42:23;101289.03;;;20.41
53412;BMP280;39307;52.870;13.660;2023-06-14T09:44:49;101278.81;;;20.49
53412;BMP280;39307;52.870;13.660;2023-06-14T09:47:16;101281.81;;;20.52
53412;BMP280;39307;52.870;13.660;2023-06-14T09:49:42;101272.94;;;20.58
53412;BMP280;39307;52.870;13.660;2023-06-14T09:52:18;101285.56;;;20.63
53412;BMP280;39307;52.870;13.660;2023-06-14T09:54:45;101282.63;;;20.76
53412;BMP280;39307;52.870;13.660;2023-06-14T09:57:17;101271.97;;;20.87
53412;BMP280;39307;52.870;13.660;2023-06-14T09:59:48;101265.44;;;20.94
53412;BMP280;39307;52.870;13.660;2023-06-14T10:02:28;101268.88;;;21.06
53412;BMP280;39307;52.870;13.660;2023-06-14T10:05:07;101268.84;;;21.17
53412;BMP280;39307;52.870;13.660;2023-06-14T10:07:44;101267.63;;;21.25
53412;BMP280;39307;52.870;13.660;2023-06-14T10:10:14;101270.53;;;21.35
53412;BMP280;39307;52.870;13.660;2023-06-14T10:12:41;101261.09;;;21.43
53412;BMP280;39307;52.870;13.660;2023-06-14T10:15:11;101263.31;;;21.63
53412;BMP280;39307;52.870;13.660;2023-06-14T10:18:13;101261.28;;;21.86
53412;BMP280;39307;52.870;13.660;2023-06-14T10:21:05;101256.38;;;22.27
53412;BMP280;39307;52.870;13.660;2023-06-14T10:23:40;101253.44;;;22.65
53412;BMP280;39307;52.870;13.660;2023-06-14T10:26:08;101263.44;;;22.75
53412;BMP280;39307;52.870;13.660;2023-06-14T10:28:38;101247.78;;;22.83
53412;BMP280;39307;52.870;13.660;2023-06-14T10:31:06;101237.25;;;22.93
53412;BMP280;39307;52.870;13.660;2023-06-14T10:33:33;101237.84;;;23.00
53412;BMP280;39307;52.870;13.660;2023-06-14T10:38:37;101237.81;;;23.47
53412;BMP280;39307;52.870;13.660;2023-06-14T10:41:04;101232.09;;;23.65
53412;BMP280;39307;52.870;13.660;2023-06-14T10:43:31;101226.72;;;23.60
53412;BMP280;39307;52.870;13.660;2023-06-14T10:46:16;101220.06;;;23.62
53412;BMP280;39307;52.870;13.660;2023-06-14T10:48:44;101228.22;;;23.82
53412;BMP280;39307;52.870;13.660;2023-06-14T10:51:20;101217.47;;;24.08
53412;BMP280;39307;52.870;13.660;2023-06-14T10:53:50;101205.28;;;24.27
53412;BMP280;39307;52.870;13.660;2023-06-14T10:56:29;101201.13;;;24.55
53412;BMP280;39307;52.870;13.660;2023-06-14T10:58:57;101200.69;;;24.78
53412;BMP280;39307;52.870;13.660;2023-06-14T11:04:20;101195.19;;;25.23
53412;BMP280;39307;52.870;13.660;2023-06-14T11:06:49;101192.50;;;25.28
53412;BMP280;39307;52.870;13.660;2023-06-14T11:09:31;101183.94;;;25.17
53412;BMP280;39307;52.870;13.660;2023-06-14T11:12:03;101190.09;;;25.17
53412;BMP280;39307;52.870;13.660;2023-06-14T11:14:33;101178.28;;;25.13
53412;BMP280;39307;52.870;13.660;2023-06-14T11:16:59;101169.72;;;25.41
53412;BMP280;39307;52.870;13.660;2023-06-14T11:19:26;101172.41;;;25.85
53412;BMP280;39307;52.870;13.660;2023-06-14T11:21:52;101164.81;;;26.31
53412;BMP280;39307;52.870;13.660;2023-06-14T11:24:20;101152.59;;;26.63
53412;BMP280;39307;52.870;13.660;2023-06-14T11:26:47;101150.03;;;26.86
53412;BMP280;39307;52.870;13.660;2023-06-14T11:29:16;101147.69;;;27.18
53412;BMP280;39307;52.870;13.660;2023-06-14T11:31:46;101147.28;;;27.39
53412;BMP280;39307;52.870;13.660;2023-06-14T11:34:13;101151.22;;;27.51
53412;BMP280;39307;52.870;13.660;2023-06-14T11:36:39;101135.97;;;27.70
53412;BMP280;39307;52.870;13.660;2023-06-14T11:39:06;101143.56;;;27.91
53412;BMP280;39307;52.870;13.660;2023-06-14T11:41:44;101129.44;;;28.04
53412;BMP280;39307;52.870;13.660;2023-06-14T11:44:11;101124.34;;;28.43
53412;BMP280;39307;52.870;13.660;2023-06-14T11:46:38;101127.97;;;28.75
53412;BMP280;39307;52.870;13.660;2023-06-14T11:49:04;101119.69;;;29.08
53412;BMP280;39307;52.870;13.660;2023-06-14T11:51:32;101114.00;;;29.41
53412;BMP280;39307;52.870;13.660;2023-06-14T11:53:59;101122.88;;;29.60
53412;BMP280;39307;52.870;13.660;2023-06-14T11:56:25;101108.97;;;29.66
53412;BMP280;39307;52.870;13.660;2023-06-14T11:58:52;101106.41;;;29.88
53412;BMP280;39307;52.870;13.660;2023-06-14T12:01:19;101103.00;;;30.09
53412;BMP280;39307;52.870;13.660;2023-06-14T12:03:49;101104.91;;;29.95
53412;BMP280;39307;52.870;13.660;2023-06-14T12:06:17;101101.81;;;29.89
53412;BMP280;39307;52.870;13.660;2023-06-14T12:08:51;101098.38;;;29.83
53412;BMP280;39307;52.870;13.660;2023-06-14T12:11:22;101088.81;;;29.90
53412;BMP280;39307;52.870;13.660;2023-06-14T12:13:49;101093.75;;;29.57
53412;BMP280;39307;52.870;13.660;2023-06-14T12:16:15;101102.94;;;29.11
53412;BMP280;39307;52.870;13.660;2023-06-14T12:18:41;101100.72;;;29.45
53412;BMP280;39307;52.870;13.660;2023-06-14T12:21:08;101072.66;;;29.46
53412;BMP280;39307;52.870;13.660;2023-06-14T12:23:48;101080.75;;;29.46
53412;BMP280;39307;52.870;13.660;2023-06-14T12:26:16;101093.88;;;29.02
53412;BMP280;39307;52.870;13.660;2023-06-14T12:28:45;101095.50;;;28.49
53412;BMP280;39307;52.870;13.660;2023-06-14T12:31:12;101098.50;;;28.01
53412;BMP280;39307;52.870;13.660;2023-06-14T12:33:40;101094.75;;;27.74
53412;BMP280;39307;52.870;13.660;2023-06-14T12:36:07;101108.84;;;27.38
53412;BMP280;39307;52.870;13.660;2023-06-14T12:38:34;101106.41;;;27.04
53412;BMP280;39307;52.870;13.660;2023-06-14T12:41:00;101096.38;;;26.76
53412;BMP280;39307;52.870;13.660;2023-06-14T12:43:27;101102.19;;;26.50
53412;BMP280;39307;52.870;13.660;2023-06-14T12:45:53;101108.72;;;26.30
53412;BMP280;39307;52.870;13.660;2023-06-14T12:48:20;101102.38;;;26.11
53412;BMP280;39307;52.870;13.660;2023-06-14T12:50:47;101117.94;;;25.99
53412;BMP280;39307;52.870;13.660;2023-06-14T12:53:13;101120.66;;;25.84
53412;BMP280;39307;52.870;13.660;2023-06-14T12:55:40;101121.78;;;25.69
53412;BMP280;39307;52.870;13.660;2023-06-14T12:58:06;101118.00;;;25.65
53412;BMP280;39307;52.870;13.660;2023-06-14T13:00:32;101114.81;;;25.53
53412;BMP280;39307;52.870;13.660;2023-06-14T13:02:59;101120.44;;;25.37
53412;BMP280;39307;52.870;13.660;2023-06-14T13:05:25;101118.56;;;25.18
53412;BMP280;39307;52.870;13.660;2023-06-14T13:07:52;101125.00;;;25.02
53412;BMP280;39307;52.870;13.660;2023-06-14T13:10:18;101122.28;;;24.92
53412;BMP280;39307;52.870;13.660;2023-06-14T13:12:44;101124.94;;;24.82
53412;BMP280;39307;52.870;13.660;2023-06-14T13:15:11;101123.56;;;24.75
53412;BMP280;39307;52.870;13.660;2023-06-14T13:17:37;101122.72;;;24.64
53412;BMP280;39307;52.870;13.660;2023-06-14T13:20:07;101122.47;;;24.56
53412;BMP280;39307;52.870;13.660;2023-06-14T13:22:34;101114.09;;;24.38
53412;BMP280;39307;52.870;13.660;2023-06-14T13:25:00;101114.81;;;24.19
53412;BMP280;39307;52.870;13.660;2023-06-14T13:27:27;101113.91;;;24.03
53412;BMP280;39307;52.870;13.660;2023-06-14T13:29:54;101113.06;;;23.93
53412;BMP280;39307;52.870;13.660;2023-06-14T13:32:23;101116.50;;;23.84
53412;BMP280;39307;52.870;13.660;2023-06-14T13:34:50;101112.41;;;23.72
53412;BMP280;39307;52.870;13.660;2023-06-14T13:37:16;101110.66;;;23.51
53412;BMP280;39307;52.870;13.660;2023-06-14T13:39:43;101115.41;;;23.44
53412;BMP280;39307;52.870;13.660;2023-06-14T13:42:09;101116.66;;;23.37
53412;BMP280;39307;52.870;13.660;2023-06-14T13:44:35;101106.19;;;23.30
53412;BMP280;39307;52.870;13.660;2023-06-14T13:47:01;101114.13;;;23.20
53412;BMP280;39307;52.870;13.660;2023-06-14T13:49:28;101116.16;;;23.09
53412;BMP280;39307;52.870;13.660;2023-06-14T13:51:54;101113.94;;;22.96